Time;durP1;ratioP1;P1;durP2;ratioP2;P2;SDS_P1;SDS_P2;PMS_P1;PMS_P2;Temp;Humidity;BMP_temperature;BMP_pressure;BME280_temperature;BME280_humidity;BME280_pressure;Samples;Min_cycle;Max_cycle;Signal;HPM_P1;HPM_P2
2020/12/01 00:00:54;;;;;;;10.80;6.67;;;;;;;0.58;73.17;101127.38;1759768;80;21199;-61
2020/12/01 00:03:24;;;;;;;14.03;7.87;;;;;;;0.68;72.64;101132.20;1760787;80;21371;-60
2020/12/01 00:05:52;;;;;;;13.78;7.25;;;;;;;0.66;73.19;101129.34;1774910;80;21121;-61
2020/12/01 00:08:19;;;;;;;10.15;7.12;;;;;;;0.61;72.98;101118.37;1756476;80;21164;-64
2020/12/01 00:10:47;;;;;;;9.48;6.62;;;;;;;0.52;73.02;101123.47;1798744;79;21036;-61
2020/12/01 00:13:14;;;;;;;11.93;6.72;;;;;;;0.46;73.08;101128.47;1798735;79;21128;-63
2020/12/01 00:15:42;;;;;;;11.95;7.50;;;;;;;0.43;73.33;101128.73;1798067;79;21338;-61
2020/12/01 00:18:09;;;;;;;10.35;6.03;;;;;;;0.45;73.46;101122.34;1798539;79;21044;-61
2020/12/01 00:20:37;;;;;;;11.43;7.37;;;;;;;0.49;73.46;101117.64;1799856;78;21150;-62
2020/12/01 00:23:04;;;;;;;8.88;5.22;;;;;;;0.54;73.29;101123.83;1797731;79;21045;-62
2020/12/01 00:25:32;;;;;;;11.70;8.23;;;;;;;0.51;73.06;101119.65;1801146;79;21144;-64
2020/12/01 01:22:56;;;;;;;12.45;7.95;;;;;;;0.93;72.09;101117.31;1819074;77;22693;-61
2020/12/01 01:25:24;;;;;;;12.63;6.90;;;;;;;0.83;72.21;101114.67;1791152;79;21046;-60
2020/12/01 01:27:52;;;;;;;13.93;7.95;;;;;;;0.84;71.89;101113.68;1790679;79;21371;-63
2020/12/01 01:30:22;;;;;;;8.53;5.35;;;;;;;0.75;72.04;101119.32;1739898;82;21151;-60
2020/12/01 01:32:50;;;;;;;10.45;6.87;;;;;;;0.75;72.13;101113.19;1727843;82;21124;-60
2020/12/01 01:35:18;;;;;;;13.40;8.00;;;;;;;0.71;72.19;101111.31;1729274;82;20919;-61
2020/12/01 01:37:46;;;;;;;10.93;6.97;;;;;;;0.72;72.26;101114.28;1756208;81;20934;-60
2020/12/01 01:40:21;;;;;;;8.88;5.62;;;;;;;0.76;72.42;101114.86;1723554;82;21374;-60
2020/12/01 01:42:49;;;;;;;9.18;6.28;;;;;;;0.83;72.36;101114.17;1728276;82;21053;-61
2020/12/01 01:45:41;;;;;;;;;;;;;;;0.86;72.37;101111.26;1729336;82;21036;-61
2020/12/01 01:48:25;;;;;;;15.93;7.40;;;;;;;0.90;72.20;101120.23;1730270;82;20299;-60
2020/12/01 01:51:05;;;;;;;9.80;6.42;;;;;;;0.87;71.96;101099.73;1728340;82;21552;-60
2020/12/01 01:53:35;;;;;;;9.73;6.55;;;;;;;0.80;71.98;101091.19;1731160;82;21381;-60
2020/12/01 01:56:05;;;;;;;10.13;6.47;;;;;;;0.70;72.07;101089.34;1727689;82;21136;-60
2020/12/01 01:58:36;;;;;;;11.93;7.45;;;;;;;0.65;72.24;101096.02;1728408;82;21018;-59
2020/12/01 02:01:08;;;;;;;15.93;9.55;;;;;;;0.61;72.37;101088.84;1729690;82;21134;-61
2020/12/01 02:03:50;;;;;;;17.10;9.15;;;;;;;0.61;72.46;101087.53;1739111;82;20946;-61
2020/12/01 02:06:25;;;;;;;22.67;10.03;;;;;;;0.63;72.45;101092.20;1730626;82;22243;-60
2020/12/01 02:08:57;;;;;;;21.70;10.23;;;;;;;0.65;72.52;101084.15;1726621;82;21085;-61
2020/12/01 02:11:26;;;;;;;16.80;8.53;;;;;;;0.66;72.56;101085.33;1752589;81;21227;-60
2020/12/01 02:14:25;;;;;;;16.97;7.92;;;;;;;0.67;72.37;101067.19;1730386;82;21073;-61
2020/12/01 02:17:26;;;;;;;19.67;11.20;;;;;;;0.64;72.42;101076.70;1809105;78;27818;-61
2020/12/01 02:20:13;;;;;;;22.93;11.95;;;;;;;0.66;72.45;101084.47;1816041;77;28165;-59
2020/12/01 02:22:45;;;;;;;18.50;8.50;;;;;;;0.85;72.26;101087.17;1764378;80;21374;-61
2020/12/01 02:25:14;;;;;;;19.87;9.23;;;;;;;0.84;71.87;101087.28;1764666;80;20998;-60
2020/12/01 02:27:42;;;;;;;;;;;;;;;0.75;71.94;101082.83;1760806;80;21069;-60
2020/12/01 02:30:11;;;;;;;15.38;7.35;;;;;;;0.68;72.07;101083.88;1754812;80;20138;-61
2020/12/01 02:32:39;;;;;;;12.47;6.90;;;;;;;0.57;72.19;101083.48;1758158;80;21042;-61
2020/12/01 02:35:10;;;;;;;12.37;6.58;;;;;;;0.44;72.43;101087.70;1759258;80;21199;-60
2020/12/01 02:37:40;;;;;;;11.65;6.70;;;;;;;0.38;72.66;101086.08;1762481;80;21077;-61
2020/12/01 02:40:14;;;;;;;12.43;7.10;;;;;;;0.34;72.99;101078.92;1755675;80;20963;-61
2020/12/01 02:42:42;;;;;;;13.80;7.85;;;;;;;0.35;73.00;101084.53;1731506;80;20931;-60
2020/12/01 02:45:10;;;;;;;17.50;10.00;;;;;;;0.40;73.09;101086.77;1757855;80;21137;-61
2020/12/01 02:47:39;;;;;;;12.68;6.67;;;;;;;0.44;73.02;101094.30;1765992;80;21654;-61
2020/12/01 02:50:08;;;;;;;10.10;6.37;;;;;;;0.46;73.04;101102.08;1758571;80;21065;-62
2020/12/01 02:52:35;;;;;;;15.85;9.50;;;;;;;0.47;72.98;101096.67;1758133;80;21093;-60
2020/12/01 02:55:03;;;;;;;14.70;8.88;;;;;;;0.43;72.92;101099.72;1754373;80;21164;-60
2020/12/01 02:57:31;;;;;;;11.75;6.75;;;;;;;0.37;73.13;101103.72;1759048;80;21006;-60
2020/12/01 02:59:58;;;;;;;11.78;7.40;;;;;;;0.39;73.20;101103.09;1756800;80;21214;-61
2020/12/01 03:02:26;;;;;;;9.28;6.30;;;;;;;0.40;73.17;101110.50;1757404;80;21148;-61
2020/12/01 03:04:55;;;;;;;8.40;6.08;;;;;;;0.41;73.28;101105.59;1757045;80;21010;-61
2020/12/01 03:07:22;;;;;;;10.15;6.70;;;;;;;0.48;73.16;101105.41;1759348;80;20959;-61
2020/12/01 03:09:50;;;;;;;10.38;6.83;;;;;;;0.55;73.06;101099.95;1757123;80;21092;-61
2020/12/01 03:12:18;;;;;;;11.60;6.60;;;;;;;0.61;72.94;101104.68;1756847;80;21376;-62
2020/12/01 03:14:46;;;;;;;7.80;5.28;;;;;;;0.64;72.96;101103.09;1755485;80;21172;-61
2020/12/01 03:17:13;;;;;;;9.08;6.65;;;;;;;0.75;72.74;101098.20;1760542;80;21168;-62
2020/12/01 03:19:41;;;;;;;7.92;5.47;;;;;;;0.80;72.64;101099.93;1757342;80;21534;-61
2020/12/01 03:22:08;;;;;;;7.40;5.12;;;;;;;0.82;72.26;101106.39;1762071;80;21060;-61
2020/12/01 03:24:36;;;;;;;7.90;5.65;;;;;;;0.83;72.28;101110.71;1841405;77;21347;-62
2020/12/01 03:27:04;;;;;;;11.95;7.12;;;;;;;0.85;72.06;101108.76;1758550;80;21049;-63
2020/12/01 03:29:31;;;;;;;10.55;6.72;;;;;;;0.86;72.13;101117.03;1761907;80;21121;-61
2020/12/01 03:31:59;;;;;;;11.12;7.45;;;;;;;0.93;72.00;101110.24;1840133;77;21192;-61
2020/12/01 03:34:26;;;;;;;10.70;7.28;;;;;;;0.95;71.79;101119.34;1760649;80;21202;-60
2020/12/01 03:36:55;;;;;;;8.73;5.47;;;;;;;0.90;71.71;101118.44;1842867;77;22431;-60
2020/12/01 03:39:23;;;;;;;9.33;6.05;;;;;;;0.87;71.75;101120.86;1768066;80;21361;-60
2020/12/01 03:41:50;;;;;;;9.60;5.75;;;;;;;0.83;71.79;101130.52;1833074;77;21165;-59
2020/12/01 03:44:18;;;;;;;13.80;6.87;;;;;;;0.78;71.82;101124.32;1845347;77;20990;-60
2020/12/01 03:46:48;;;;;;;8.68;5.35;;;;;;;0.75;71.84;101119.78;1761662;80;21133;-60
2020/12/01 03:49:15;;;;;;;12.43;6.58;;;;;;;0.73;71.94;101116.45;1759879;80;21243;-59
2020/12/01 03:51:43;;;;;;;13.50;7.35;;;;;;;0.70;71.89;101109.64;1841284;77;21085;-60
2020/12/01 03:54:10;;;;;;;13.22;7.47;;;;;;;0.61;72.01;101120.52;1767445;80;21125;-60
2020/12/01 03:56:38;;;;;;;13.58;7.83;;;;;;;0.60;72.36;101120.16;1837270;77;20979;-61
2020/12/01 03:59:06;;;;;;;13.48;8.88;;;;;;;0.63;72.44;101113.78;1767819;80;21587;-59
2020/12/01 04:01:34;;;;;;;11.23;5.80;;;;;;;0.71;72.58;101121.87;1808864;78;21359;-59
2020/12/01 04:04:01;;;;;;;10.38;6.78;;;;;;;0.84;72.48;101117.17;1841889;77;21022;-60
2020/12/01 04:06:30;;;;;;;14.35;8.10;;;;;;;0.91;72.17;101115.30;1764988;80;20959;-61
2020/12/01 04:08:57;;;;;;;13.08;7.78;;;;;;;0.96;72.11;101111.78;1841687;77;21188;-61
2020/12/01 04:11:26;;;;;;;14.85;8.18;;;;;;;0.98;71.78;101115.94;1760318;80;21145;-60
2020/12/01 04:13:54;;;;;;;20.72;7.95;;;;;;;0.91;71.67;101114.80;1756655;80;21202;-59
2020/12/01 04:16:21;;;;;;;15.75;8.35;;;;;;;0.92;71.73;101111.20;1838783;77;21058;-59
2020/12/01 04:18:49;;;;;;;9.43;6.30;;;;;;;0.93;71.70;101112.03;1762571;80;21034;-60
2020/12/01 04:21:17;;;;;;;9.58;5.85;;;;;;;0.96;71.67;101109.14;1758572;80;21184;-59
2020/12/01 04:23:51;;;;;;;6.97;4.33;;;;;;;0.97;71.60;101117.39;1760878;80;21598;-60
2020/12/01 04:26:14;;;;;;;11.45;6.72;;;;;;;0.99;71.40;101114.97;1762212;80;21477;-60
2020/12/01 04:28:42;;;;;;;8.73;5.92;;;;;;;0.91;71.32;101121.91;1839634;77;21457;-60
2020/12/01 04:31:10;;;;;;;9.00;6.12;;;;;;;0.83;71.51;101115.50;1763000;80;20966;-61
2020/12/01 04:33:37;;;;;;;8.75;6.15;;;;;;;0.84;71.54;101113.22;1763090;80;21009;-60
2020/12/01 04:36:05;;;;;;;11.08;6.53;;;;;;;0.81;71.66;101098.11;1761120;80;21168;-60
2020/12/01 04:38:33;;;;;;;7.28;5.30;;;;;;;0.74;71.72;101116.32;1840321;77;21199;-60
2020/12/01 04:41:01;;;;;;;10.13;7.55;;;;;;;0.75;71.94;101114.04;1766826;80;20946;-61
2020/12/01 04:43:44;;;;;;;9.70;6.60;;;;;;;0.78;71.96;101120.83;1842789;77;20991;-60
2020/12/01 04:46:18;;;;;;;11.30;6.47;;;;;;;0.82;71.96;101119.59;1760584;80;21006;-62
2020/12/01 04:48:50;;;;;;;9.15;6.47;;;;;;;0.85;71.92;101116.68;1813004;77;20971;-59
2020/12/01 04:51:44;;;;;;;9.83;6.08;;;;;;;0.87;71.96;101116.90;1843029;77;21368;-61
2020/12/01 04:54:38;;;;;;;9.65;6.65;;;;;;;0.93;71.89;101114.20;1767706;80;20935;-61
2020/12/01 04:57:20;;;;;;;9.85;6.53;;;;;;;1.04;72.06;101110.59;1818837;78;22837;-61
2020/12/01 05:00:16;;;;;;;7.58;5.92;;;;;;;1.04;72.06;101110.59;1755723;79;21604;-59
2020/12/01 05:03:05;;;;;;;9.45;6.45;;;;;;;1.10;72.01;101112.67;1792300;79;22251;-60
2020/12/01 05:09:05;;;;;;;7.97;5.80;;;;;;;1.32;71.74;101112.89;1828055;76;22694;-60
2020/12/01 05:11:54;;;;;;;9.90;6.15;;;;;;;1.32;71.74;101112.89;1822625;78;21037;-61
2020/12/01 05:14:33;;;;;;;7.12;4.47;;;;;;;1.21;71.40;101115.20;1821421;78;21193;-61
2020/12/01 05:17:42;;;;;;;6.40;4.00;;;;;;;1.00;71.72;101113.15;1819455;78;21626;-62
2020/12/01 05:20:10;;;;;;;11.90;6.50;;;;;;;0.84;72.16;101117.64;1798170;78;21080;-60
2020/12/01 05:22:39;;;;;;;13.80;7.22;;;;;;;0.74;72.70;101122.06;1792464;79;21017;-61
2020/12/01 05:25:11;;;;;;;;;;;;;;;0.76;72.80;101118.83;1791104;79;20977;-62
2020/12/01 05:27:46;;;;;;;11.50;6.05;;;;;;;0.87;72.97;101115.58;1819518;78;22854;-61
2020/12/01 05:30:23;;;;;;;10.32;6.42;;;;;;;0.87;72.94;101111.62;1821390;77;21061;-61
2020/12/01 05:32:58;;;;;;;9.43;5.97;;;;;;;0.89;72.93;101106.70;1819470;77;21555;-62
2020/12/01 05:35:32;;;;;;;9.33;6.28;;;;;;;0.86;72.84;101116.54;1824870;77;20935;-61
2020/12/01 05:38:04;;;;;;;10.03;6.50;;;;;;;0.82;73.03;101115.63;1821376;77;20995;-60
2020/12/01 05:40:34;;;;;;;11.00;5.92;;;;;;;0.86;73.14;101115.22;1824507;77;21081;-61
2020/12/01 05:43:02;;;;;;;9.10;6.30;;;;;;;0.96;73.08;101111.28;1820384;77;20970;-63
2020/12/01 05:45:34;;;;;;;10.40;5.87;;;;;;;1.03;73.01;101112.88;1824743;77;21179;-60
2020/12/01 05:48:37;;;;;;;12.13;7.03;;;;;;;1.06;72.70;101112.63;1823081;77;20963;-60
2020/12/01 05:51:15;;;;;;;10.78;6.53;;;;;;;1.06;72.63;101115.27;1821074;77;21022;-61
2020/12/01 05:53:43;;;;;;;11.45;7.30;;;;;;;1.01;72.61;101115.66;1825571;77;20983;-59
2020/12/01 05:56:17;;;;;;;11.20;7.22;;;;;;;0.99;72.67;101115.47;1823353;77;21168;-60
2020/12/01 05:58:50;;;;;;;11.60;6.75;;;;;;;0.95;72.79;101118.02;1822611;77;22241;-60
2020/12/01 06:01:17;;;;;;;7.75;5.37;;;;;;;0.97;72.79;101122.20;1819624;77;21096;-61
2020/12/01 06:04:14;;;;;;;9.48;5.60;;;;;;;1.03;72.70;101123.44;1790480;77;21085;-60
2020/12/01 06:07:15;;;;;;;11.78;7.47;;;;;;;1.01;72.59;101122.75;1822905;77;21188;-60
2020/12/01 06:10:28;;;;;;;11.68;6.92;;;;;;;1.00;72.59;101113.15;1824437;77;21129;-63
2020/12/01 06:13:18;;;;;;;19.17;10.63;;;;;;;1.01;72.70;101127.53;1818778;77;21127;-61
2020/12/01 06:16:05;;;;;;;14.75;9.28;;;;;;;1.16;72.83;101121.39;1819315;78;22798;-61
2020/12/01 06:18:49;;;;;;;15.20;8.53;;;;;;;1.14;72.46;101133.88;1786553;79;20930;-62
2020/12/01 06:21:22;;;;;;;11.00;6.80;;;;;;;1.11;72.52;101135.98;1757949;80;21414;-61
2020/12/01 06:24:04;;;;;;;10.90;6.75;;;;;;;1.13;72.65;101134.02;1751553;80;21057;-61
2020/12/01 06:26:48;;;;;;;9.70;6.62;;;;;;;1.18;72.54;101129.18;1758207;80;21017;-60
2020/12/01 06:29:59;;;;;;;11.12;7.00;;;;;;;1.29;72.46;101126.38;1818848;78;21783;-61
2020/12/01 06:33:01;;;;;;;11.45;8.48;;;;;;;1.28;72.12;101129.16;1806394;79;20959;-63
2020/12/01 06:35:52;;;;;;;6.20;4.08;;;;;;;1.27;72.18;101127.02;1805637;79;21144;-62
2020/12/01 06:38:51;;;;;;;14.33;8.28;;;;;;;1.32;71.98;101137.98;1816775;78;22753;-61
2020/12/01 06:41:22;;;;;;;21.37;11.65;;;;;;;1.16;71.92;101128.46;1790951;79;20927;-61
2020/12/01 06:43:54;;;;;;;30.00;14.93;;;;;;;1.07;72.23;101120.05;1791360;79;21583;-61
2020/12/01 06:46:48;;;;;;;26.80;14.15;;;;;;;1.05;72.33;101136.04;1787742;79;21002;-61
2020/12/01 06:49:26;;;;;;;24.20;13.45;;;;;;;1.06;72.47;101133.75;1793707;79;21117;-61
2020/12/01 06:51:58;;;;;;;19.73;10.85;;;;;;;1.01;72.52;101133.31;1791598;79;20990;-61
2020/12/01 06:54:26;;;;;;;17.20;11.00;;;;;;;0.93;72.70;101132.69;1794028;79;20923;-62
2020/12/01 06:57:04;;;;;;;12.60;8.60;;;;;;;0.90;72.77;101137.39;1789320;79;21289;-61
2020/12/01 06:59:32;;;;;;;13.37;8.10;;;;;;;0.83;72.81;101136.61;1789935;79;21002;-61
2020/12/01 07:02:36;;;;;;;10.48;7.05;;;;;;;0.82;73.06;101134.94;1788482;79;21014;-62
2020/12/01 07:05:11;;;;;;;12.60;7.40;;;;;;;0.88;73.12;101124.32;1791718;79;21104;-64
2020/12/01 07:07:42;;;;;;;13.93;7.60;;;;;;;0.99;73.17;101129.49;1792934;79;20904;-62
2020/12/01 07:10:28;;;;;;;16.15;8.23;;;;;;;1.05;72.88;101136.86;1791374;79;21584;-64
2020/12/01 07:13:33;;;;;;;13.20;7.72;;;;;;;0.97;72.91;101134.55;1790957;79;20982;-61
2020/12/01 07:16:22;;;;;;;12.90;7.62;;;;;;;0.89;73.12;101141.02;1822335;78;22346;-62
2020/12/01 07:18:53;;;;;;;12.88;7.47;;;;;;;0.76;73.36;101132.02;1824433;77;20876;-61
2020/12/01 07:21:32;;;;;;;16.73;8.33;;;;;;;0.82;73.55;101134.94;1824300;77;21362;-61
2020/12/01 07:24:34;;;;;;;21.05;11.35;;;;;;;0.91;73.64;101142.53;1820083;76;22754;-61
2020/12/01 07:27:13;;;;;;;23.30;10.80;;;;;;;0.87;73.67;101133.23;1794845;77;21066;-62
2020/12/01 07:30:18;;;;;;;25.70;12.20;;;;;;;0.90;73.71;101133.42;1791645;79;21202;-62
2020/12/01 07:32:51;;;;;;;35.92;15.70;;;;;;;0.87;73.68;101139.34;1787251;79;20954;-62
2020/12/01 07:38:38;;;;;;;34.63;17.55;;;;;;;0.98;73.78;101147.62;1743053;80;20949;-61
2020/12/01 07:41:23;;;;;;;32.40;17.10;;;;;;;1.00;73.67;101161.54;1748002;81;21222;-62
2020/12/01 07:44:06;;;;;;;29.85;15.68;;;;;;;0.98;73.81;101157.36;1749396;81;21210;-61
2020/12/01 07:49:20;;;;;;;21.25;11.10;;;;;;;1.11;73.92;101158.43;1751344;79;20988;-61
2020/12/01 07:51:48;;;;;;;15.25;9.58;;;;;;;1.21;73.78;101153.50;1750071;79;21463;-61
2020/12/01 07:54:21;;;;;;;16.20;9.15;;;;;;;1.29;73.73;101149.33;1736821;81;21206;-60
2020/12/01 07:56:49;;;;;;;21.97;11.05;;;;;;;1.32;73.33;101153.02;1761570;80;21419;-62
2020/12/01 07:59:16;;;;;;;25.90;10.95;;;;;;;1.27;73.36;101157.89;1764836;80;21178;-61
2020/12/01 08:01:45;;;;;;;14.73;8.28;;;;;;;1.36;74.13;101152.59;1763820;79;21578;-62
2020/12/01 08:04:16;;;;;;;19.98;11.12;;;;;;;1.51;74.42;101149.05;1767306;80;21039;-62
2020/12/01 08:06:44;;;;;;;18.75;9.45;;;;;;;1.67;74.61;101152.95;1751171;81;21166;-62
2020/12/01 08:09:23;;;;;;;25.10;11.15;;;;;;;1.83;74.01;101156.34;1750321;81;21565;-61
2020/12/01 08:11:53;;;;;;;;;;;;;;;1.88;73.43;101156.73;1770553;80;21151;-61
2020/12/01 08:14:20;;;;;;;14.18;7.67;;;;;;;1.87;72.98;101153.27;1760692;80;20524;-62
2020/12/01 08:17:03;;;;;;;19.12;9.53;;;;;;;1.82;72.54;101145.41;1772957;78;21088;-61
2020/12/01 08:19:32;;;;;;;26.77;12.68;;;;;;;1.72;72.61;101152.88;1767381;80;21166;-61
2020/12/01 08:22:00;;;;;;;28.12;13.35;;;;;;;1.68;72.67;101155.92;1773030;80;21259;-60
2020/12/01 08:24:29;;;;;;;26.45;13.35;;;;;;;1.71;72.73;101151.70;1781558;80;20946;-60
2020/12/01 08:27:04;;;;;;;26.82;11.28;;;;;;;1.71;72.62;101148.56;1704816;81;21247;-61
2020/12/01 08:29:35;;;;;;;21.85;10.80;;;;;;;1.57;72.53;101150.30;1766317;80;21637;-61
2020/12/01 08:32:35;;;;;;;27.02;10.15;;;;;;;1.43;72.82;101149.39;1754091;80;21555;-62
2020/12/01 08:35:25;;;;;;;22.93;11.48;;;;;;;1.42;73.11;101142.47;1760819;80;21554;-63
2020/12/01 08:38:04;;;;;;;22.62;10.05;;;;;;;1.47;73.22;101146.33;1781862;79;21199;-60
2020/12/01 08:41:08;;;;;;;23.57;12.55;;;;;;;1.52;73.24;101138.01;1798084;79;21578;-61
2020/12/01 08:43:59;;;;;;;20.37;11.90;;;;;;;1.53;73.07;101147.12;1795539;79;21178;-60
2020/12/01 08:46:27;;;;;;;22.73;11.95;;;;;;;1.55;73.24;101145.16;1795616;79;20887;-61
2020/12/01 08:49:07;;;;;;;21.70;11.68;;;;;;;1.49;73.24;101141.76;1798647;79;21364;-61
2020/12/01 08:51:54;;;;;;;16.67;9.25;;;;;;;1.44;73.40;101136.05;1797758;79;20995;-60
2020/12/01 08:54:36;;;;;;;17.50;8.50;;;;;;;1.55;73.68;101132.44;1820363;78;22693;-61
2020/12/01 08:57:14;;;;;;;16.50;8.73;;;;;;;1.61;73.52;101129.23;1805992;79;21002;-62
2020/12/01 08:59:55;;;;;;;20.43;11.33;;;;;;;1.67;73.56;101132.63;1801085;79;21353;-61
2020/12/01 09:02:23;;;;;;;22.22;10.32;;;;;;;1.78;73.42;101124.19;1774900;79;21013;-60
2020/12/01 09:05:00;;;;;;;17.83;10.70;;;;;;;1.90;73.31;101131.83;1805685;79;21634;-61
2020/12/01 09:07:32;;;;;;;19.10;11.50;;;;;;;2.01;73.24;101122.06;1807551;79;21163;-60
2020/12/01 09:10:23;;;;;;;16.35;9.50;;;;;;;2.09;73.08;101120.36;1794698;79;20990;-60
2020/12/01 09:21:52;;;;;;;19.20;8.80;;;;;;;2.36;72.25;101106.82;1818779;78;22765;-61
2020/12/01 09:23:38;;;;;;;20.70;11.40;;;;;;;2.33;71.95;101107.11;1790167;79;21010;-60
2020/12/01 09:26:19;;;;;;;22.15;11.00;;;;;;;2.28;71.93;101100.94;1791865;79;21201;-61
2020/12/01 09:28:50;;;;;;;17.30;9.85;;;;;;;2.30;72.02;101102.12;1791680;79;21120;-61
2020/12/01 09:31:18;;;;;;;15.43;10.15;;;;;;;2.31;71.97;101102.44;1791881;79;21117;-61
2020/12/01 09:33:45;;;;;;;18.07;11.38;;;;;;;2.35;71.83;101101.17;1791321;79;21049;-61
2020/12/01 09:36:19;;;;;;;19.40;11.75;;;;;;;2.36;71.61;101103.35;1788509;79;21021;-61
2020/12/01 09:38:54;;;;;;;18.77;11.60;;;;;;;2.35;71.80;101101.67;1816890;78;22882;-60
2020/12/01 09:41:24;;;;;;;23.67;12.07;;;;;;;2.33;71.84;101103.14;1806035;79;20971;-60
2020/12/01 09:44:00;;;;;;;25.68;13.20;;;;;;;2.35;71.82;101099.85;1808386;79;21359;-60
2020/12/01 09:49:02;;;;;;;23.95;15.32;;;;;;;2.49;71.79;101100.34;1802978;78;27950;-61
2020/12/01 09:51:27;;;;;;;21.48;13.05;;;;;;;2.55;71.60;101101.92;1802113;79;20991;-60
2020/12/01 09:54:14;;;;;;;22.25;12.85;;;;;;;2.60;71.51;101097.50;1802823;79;21190;-60
2020/12/01 09:56:55;;;;;;;21.75;13.58;;;;;;;2.61;71.40;101099.18;1796718;79;20983;-61
2020/12/01 09:59:33;;;;;;;18.65;10.58;;;;;;;2.63;71.30;101091.91;1798271;78;20948;-61
2020/12/01 10:26:15;;;;;;;30.57;14.53;;;;;;;2.44;71.80;101080.47;1767687;80;21262;-61
2020/12/01 10:36:29;;;;;;;21.10;11.90;;;;;;;2.66;72.05;101077.55;1824153;78;21859;-60
2020/12/01 10:38:59;;;;;;;21.10;12.20;;;;;;;2.66;72.05;101078.38;1798958;79;20922;-62
2020/12/01 10:41:30;;;;;;;19.67;11.10;;;;;;;2.70;71.92;101078.42;1798230;79;21359;-62
2020/12/01 10:43:58;;;;;;;18.70;11.93;;;;;;;2.73;71.85;101075.98;1799762;79;20898;-60
2020/12/01 10:46:25;;;;;;;25.90;14.07;;;;;;;2.76;71.74;101073.84;1809678;77;20998;-60
2020/12/01 10:48:53;;;;;;;29.50;16.20;;;;;;;2.81;71.67;101078.69;1797614;79;21247;-60
2020/12/01 10:51:21;;;;;;;28.12;15.05;;;;;;;2.83;71.53;101080.72;1797559;79;20910;-60
2020/12/01 10:53:49;;;;;;;24.47;14.25;;;;;;;2.86;71.54;101080.91;1798448;79;21430;-60
2020/12/01 10:56:16;;;;;;;30.17;16.35;;;;;;;2.90;71.48;101077.81;1799281;79;21002;-60
2020/12/01 10:58:44;;;;;;;23.73;13.53;;;;;;;2.91;71.37;101075.48;1795938;79;21015;-61
2020/12/01 11:01:11;;;;;;;26.15;13.13;;;;;;;2.94;71.35;101077.00;1800214;79;21435;-62
2020/12/01 11:03:40;;;;;;;28.35;14.05;;;;;;;2.96;71.26;101076.38;1805013;79;21614;-61
2020/12/01 11:06:08;;;;;;;23.65;13.30;;;;;;;2.91;71.12;101078.63;1805473;79;21191;-60
2020/12/01 11:08:35;;;;;;;28.80;14.38;;;;;;;2.78;71.22;101076.34;1800344;79;21575;-64
2020/12/01 11:11:05;;;;;;;24.43;13.43;;;;;;;2.73;71.59;101073.33;1799540;79;21104;-60
2020/12/01 11:13:32;;;;;;;29.32;16.50;;;;;;;2.75;71.60;101077.97;1797509;79;21136;-60
2020/12/01 11:16:01;;;;;;;30.43;15.10;;;;;;;2.74;71.73;101081.13;1797333;78;21109;-61
2020/12/01 11:18:29;;;;;;;28.38;14.30;;;;;;;2.74;71.80;101073.64;1798397;77;21380;-64
2020/12/01 11:20:56;;;;;;;37.40;16.75;;;;;;;2.72;71.81;101072.98;1830870;77;21124;-62
2020/12/01 11:23:24;;;;;;;26.60;15.05;;;;;;;2.69;71.93;101077.25;1826979;77;21174;-61
2020/12/01 11:25:52;;;;;;;28.45;14.28;;;;;;;2.72;72.03;101072.98;1828937;77;21048;-63
2020/12/01 11:28:19;;;;;;;37.65;18.50;;;;;;;2.75;71.99;101077.50;1823596;77;21104;-62
2020/12/01 11:30:47;;;;;;;32.67;18.12;;;;;;;2.78;71.94;101078.99;1763058;80;21367;-64
2020/12/01 11:33:15;;;;;;;36.58;18.60;;;;;;;2.82;71.96;101076.89;1762120;80;20988;-62
2020/12/01 11:35:42;;;;;;;29.57;16.17;;;;;;;2.85;71.83;101074.77;1740996;80;21200;-62
2020/12/01 11:38:10;;;;;;;32.40;18.70;;;;;;;2.87;71.87;101074.61;1796017;79;20915;-63
2020/12/01 11:40:37;;;;;;;30.88;17.70;;;;;;;2.88;71.92;101069.16;1796655;79;21164;-62
2020/12/01 11:43:05;;;;;;;33.33;16.25;;;;;;;2.92;71.72;101075.02;1793463;79;21172;-62
2020/12/01 11:45:33;;;;;;;35.00;18.37;;;;;;;2.88;71.77;101073.64;1743572;82;21018;-62
2020/12/01 11:48:01;;;;;;;35.48;18.92;;;;;;;2.88;71.87;101073.14;1795635;79;21113;-61
2020/12/01 11:50:28;;;;;;;46.13;22.87;;;;;;;2.93;71.89;101073.53;1793934;79;21121;-61
2020/12/01 11:52:56;;;;;;;44.00;23.07;;;;;;;2.97;71.77;101072.25;1742752;82;21057;-61
2020/12/01 11:55:25;;;;;;;41.68;20.92;;;;;;;2.93;71.85;101072.21;1794219;79;21188;-61
2020/12/01 11:57:52;;;;;;;42.70;20.72;;;;;;;2.95;72.02;101066.76;1790195;79;21220;-61
2020/12/01 12:00:24;;;;;;;33.45;17.75;;;;;;;2.97;72.00;101070.08;1794218;79;21465;-60
2020/12/01 12:02:52;;;;;;;38.35;18.52;;;;;;;2.96;72.09;101066.61;1736173;82;21042;-61
2020/12/01 12:05:19;;;;;;;28.45;14.83;;;;;;;3.00;72.17;101064.47;1789616;79;21053;-60
2020/12/01 12:07:47;;;;;;;29.60;15.43;;;;;;;3.00;72.12;101068.95;1795049;79;21391;-62
2020/12/01 12:10:16;;;;;;;;;;;;;;;2.95;72.26;101062.79;1795480;79;21041;-60
2020/12/01 12:12:43;;;;;;;33.00;16.95;;;;;;;2.95;72.29;101064.11;1790831;79;20591;-62
2020/12/01 12:15:11;;;;;;;36.13;17.17;;;;;;;2.88;72.42;101061.72;1757771;80;20955;-62
2020/12/01 12:17:39;;;;;;;35.35;16.57;;;;;;;2.86;72.60;101067.67;1794218;79;20951;-62
2020/12/01 12:20:08;;;;;;;29.12;15.53;;;;;;;2.84;72.69;101068.30;1742402;81;21136;-62
2020/12/01 12:22:36;;;;;;;30.48;15.00;;;;;;;2.83;72.85;101066.16;1793307;79;20940;-62
2020/12/01 12:25:04;;;;;;;34.67;17.25;;;;;;;2.89;72.88;101066.05;1793955;78;21014;-62
2020/12/01 12:27:33;;;;;;;34.67;16.70;;;;;;;2.91;72.80;101066.21;1790632;79;20939;-62
2020/12/01 12:30:00;;;;;;;;;;;;;;;2.81;72.81;101069.42;1745541;82;20999;-63
2020/12/01 12:32:28;;;;;;;34.23;16.93;;;;;;;2.65;73.06;101066.14;1722232;82;22265;-60
2020/12/01 12:34:56;;;;;;;33.38;17.05;;;;;;;2.67;73.42;101082.70;1746365;80;21153;-61
2020/12/01 12:37:24;;;;;;;34.95;16.35;;;;;;;2.75;73.54;101076.17;1761524;81;21239;-62
2020/12/01 12:39:51;;;;;;;36.38;17.98;;;;;;;2.77;73.58;101083.97;1744583;82;21051;-61
2020/12/01 12:42:19;;;;;;;33.65;17.15;;;;;;;2.83;73.52;101083.37;1744383;82;21115;-61
2020/12/01 12:44:46;;;;;;;32.78;16.23;;;;;;;2.79;73.54;101085.46;1813555;79;21377;-62
2020/12/01 12:47:14;;;;;;;37.78;17.55;;;;;;;2.82;73.55;101084.84;1813698;79;21163;-61
2020/12/01 12:49:41;;;;;;;31.15;15.55;;;;;;;2.83;73.51;101087.34;1813604;78;21077;-60
2020/12/01 12:52:09;;;;;;;30.88;16.70;;;;;;;2.86;73.44;101083.56;1813569;79;21081;-61
2020/12/01 12:54:37;;;;;;;27.40;14.38;;;;;;;2.84;73.41;101090.30;1813885;79;21176;-61
2020/12/01 12:57:04;;;;;;;28.45;15.35;;;;;;;2.80;73.53;101085.81;1812292;79;21211;-62
2020/12/01 12:59:32;;;;;;;30.43;15.63;;;;;;;2.84;73.61;101086.33;1813270;79;21073;-61
2020/12/01 13:02:00;;;;;;;37.78;17.45;;;;;;;2.91;73.59;101085.26;1813660;79;21554;-60
2020/12/01 13:06:55;;;;;;;38.75;18.07;;;;;;;2.98;73.49;101087.65;1820562;78;22154;-61
2020/12/01 13:09:23;;;;;;;33.45;17.40;;;;;;;2.99;73.43;101088.00;1790776;79;21445;-61
2020/12/01 13:11:51;;;;;;;33.40;16.65;;;;;;;3.03;73.39;101097.78;1790672;79;24500;-63
2020/12/01 13:14:19;;;;;;;35.92;15.98;;;;;;;3.03;73.28;101094.63;1789066;79;21065;-60
2020/12/01 13:16:48;;;;;;;38.17;18.17;;;;;;;3.07;73.32;101099.16;1789808;79;20930;-63
2020/12/01 13:19:15;;;;;;;35.55;16.02;;;;;;;3.08;73.13;101099.51;1779613;79;21065;-61
2020/12/01 13:21:44;;;;;;;23.40;12.60;;;;;;;3.06;73.05;101095.69;1768755;79;21573;-63
2020/12/01 13:24:12;;;;;;;42.25;19.15;;;;;;;3.02;73.01;101100.94;1760522;79;21385;-61
2020/12/01 13:26:39;;;;;;;40.03;19.07;;;;;;;2.96;73.07;101102.38;1766089;79;21331;-60
2020/12/01 13:29:07;;;;;;;35.43;17.80;;;;;;;2.90;73.10;101103.45;1760218;80;21065;-62
2020/12/01 13:31:35;;;;;;;34.18;18.05;;;;;;;2.77;73.32;101107.30;1760187;80;21154;-63
2020/12/01 13:34:03;;;;;;;36.07;17.97;;;;;;;2.73;73.69;101111.72;1760457;80;21144;-61
2020/12/01 13:36:31;;;;;;;29.60;16.67;;;;;;;2.76;73.70;101113.57;1757759;80;21433;-61
2020/12/01 13:39:00;;;;;;;31.33;16.80;;;;;;;2.71;73.76;101112.34;1759290;80;28186;-61
2020/12/01 13:41:28;;;;;;;37.35;17.92;;;;;;;2.66;73.92;101109.32;1769343;80;21034;-62